createdAt,value
2018-05-23T00:00:15.568Z,9.30
2018-05-23T00:02:42.131Z,9.50
2018-05-23T00:05:08.717Z,9.73
2018-05-23T00:07:35.289Z,9.00
2018-05-23T00:10:01.862Z,9.33
2018-05-23T00:12:28.432Z,9.57
2018-05-23T00:14:55.009Z,10.37
2018-05-23T00:17:21.574Z,9.83
2018-05-23T00:19:48.155Z,9.60
2018-05-23T00:22:14.714Z,8.97
2018-05-23T00:24:41.277Z,8.73
2018-05-23T00:27:07.853Z,9.17
2018-05-23T00:29:34.429Z,13.77
2018-05-23T00:32:01.001Z,9.20
2018-05-23T00:34:27.565Z,8.83
2018-05-23T00:36:54.131Z,9.13
2018-05-23T00:39:20.712Z,9.47
2018-05-23T00:41:47.281Z,10.03
2018-05-23T00:44:13.884Z,12.30
2018-05-23T00:46:40.463Z,9.47
2018-05-23T00:49:07.045Z,9.90
2018-05-23T00:51:33.614Z,12.70
2018-05-23T00:54:00.181Z,10.97
2018-05-23T00:56:26.752Z,9.43
2018-05-23T00:58:53.321Z,10.40
2018-05-23T01:01:19.960Z,12.33
2018-05-23T01:03:46.526Z,9.67
2018-05-23T01:06:13.090Z,9.43
2018-05-23T01:08:39.683Z,9.63
2018-05-23T01:11:06.261Z,13.53
2018-05-23T01:13:32.833Z,10.60
2018-05-23T01:15:59.418Z,9.60
2018-05-23T01:18:25.994Z,10.10
2018-05-23T01:20:52.562Z,9.40
2018-05-23T01:23:19.145Z,9.70
2018-05-23T01:25:45.725Z,10.70
2018-05-23T01:28:12.297Z,10.33
2018-05-23T01:30:38.902Z,9.27
2018-05-23T01:33:05.475Z,8.87
2018-05-23T01:35:32.099Z,8.83
2018-05-23T01:37:58.689Z,9.50
2018-05-23T01:40:25.262Z,8.70
2018-05-23T01:42:51.829Z,8.40
2018-05-23T01:45:18.507Z,8.73
2018-05-23T01:47:45.077Z,8.50
2018-05-23T01:50:11.645Z,9.20
2018-05-23T01:52:38.254Z,9.00
2018-05-23T01:55:04.817Z,9.03
2018-05-23T01:57:31.406Z,12.37
2018-05-23T01:59:57.993Z,8.23
2018-05-23T02:02:24.563Z,8.97
2018-05-23T02:04:51.139Z,8.30
2018-05-23T02:07:17.729Z,8.67
2018-05-23T02:09:44.293Z,8.40
2018-05-23T02:12:10.875Z,8.27
2018-05-23T02:14:37.478Z,8.77
2018-05-23T02:17:04.061Z,10.50
2018-05-23T02:19:30.634Z,10.10
2018-05-23T02:21:57.233Z,8.37
2018-05-23T02:24:23.799Z,8.00
2018-05-23T02:26:50.367Z,8.67
2018-05-23T02:29:16.948Z,8.50
2018-05-23T02:31:43.523Z,8.90
2018-05-23T02:34:10.103Z,8.57
2018-05-23T02:36:36.695Z,8.57
2018-05-23T02:39:03.279Z,8.13
2018-05-23T02:41:29.829Z,8.77
2018-05-23T02:43:56.398Z,8.33
2018-05-23T02:46:22.986Z,9.00
2018-05-23T02:48:49.567Z,8.37
2018-05-23T02:51:16.129Z,8.73
2018-05-23T02:53:42.718Z,9.90
2018-05-23T02:56:09.274Z,8.63
2018-05-23T02:58:35.854Z,9.00
2018-05-23T03:01:02.429Z,10.10
2018-05-23T03:03:28.996Z,7.87
2018-05-23T03:05:55.570Z,7.07
2018-05-23T03:08:22.137Z,7.80
2018-05-23T03:10:48.717Z,7.80
2018-05-23T03:13:15.279Z,8.63
2018-05-23T03:15:41.845Z,7.53
2018-05-23T03:18:08.425Z,8.23
2018-05-23T03:20:34.999Z,8.10
2018-05-23T03:23:01.613Z,8.50
2018-05-23T03:25:28.170Z,7.70
2018-05-23T03:27:54.745Z,8.03
2018-05-23T03:30:21.324Z,8.70
2018-05-23T03:32:47.887Z,8.37
2018-05-23T03:35:14.490Z,9.63
2018-05-23T03:37:41.058Z,8.00
2018-05-23T03:40:07.625Z,8.07
2018-05-23T03:42:34.202Z,9.10
2018-05-23T03:45:00.852Z,8.40
2018-05-23T03:47:27.432Z,9.80
2018-05-23T03:49:53.989Z,8.63
2018-05-23T03:52:20.569Z,8.80
2018-05-23T03:54:47.151Z,8.40
2018-05-23T03:57:13.714Z,9.70
2018-05-23T03:59:46.065Z,8.37
2018-05-23T04:02:18.476Z,9.10
2018-05-23T04:04:50.901Z,9.77
2018-05-23T04:07:23.169Z,8.50
2018-05-23T04:09:49.737Z,9.87
2018-05-23T04:12:16.313Z,11.53
2018-05-23T04:14:42.883Z,8.77
2018-05-23T04:17:09.470Z,8.60
2018-05-23T04:19:36.035Z,8.20
2018-05-23T04:22:02.597Z,8.83
2018-05-23T04:24:29.194Z,8.77
2018-05-23T04:26:55.761Z,8.73
2018-05-23T04:29:22.352Z,8.30
2018-05-23T04:31:48.918Z,8.60
2018-05-23T04:34:15.497Z,8.47
2018-05-23T04:36:42.078Z,8.13
2018-05-23T04:39:08.661Z,9.20
2018-05-23T04:41:35.245Z,8.37
2018-05-23T04:44:01.810Z,8.80
2018-05-23T04:46:28.377Z,8.57
2018-05-23T04:48:54.990Z,7.50
2018-05-23T04:51:21.537Z,8.10
2018-05-23T04:53:48.131Z,8.20
2018-05-23T04:56:14.698Z,8.30
2018-05-23T04:58:41.265Z,8.70
2018-05-23T05:01:07.876Z,8.97
2018-05-23T05:03:34.452Z,7.50
2018-05-23T05:06:01.345Z,8.57
2018-05-23T05:08:27.935Z,8.50
2018-05-23T05:10:54.537Z,8.43
2018-05-23T05:13:21.145Z,8.57
2018-05-23T05:15:47.732Z,8.70
2018-05-23T05:18:14.353Z,10.80
2018-05-23T05:20:41.036Z,9.20
2018-05-23T05:23:07.619Z,9.37
2018-05-23T05:25:34.210Z,10.07
2018-05-23T05:28:00.832Z,10.17
2018-05-23T05:30:27.437Z,10.10
2018-05-23T05:32:54.049Z,10.60
2018-05-23T05:35:20.704Z,10.07
2018-05-23T05:37:47.402Z,10.50
2018-05-23T05:40:14.025Z,11.43
2018-05-23T05:42:40.776Z,10.90
2018-05-23T05:45:07.281Z,13.00
2018-05-23T05:47:33.907Z,13.37
2018-05-23T05:50:00.588Z,12.53
2018-05-23T05:52:27.196Z,13.33
2018-05-23T05:54:53.836Z,13.03
2018-05-23T05:57:20.473Z,12.50
2018-05-23T05:59:47.096Z,13.80
2018-05-23T06:02:13.778Z,15.63
2018-05-23T06:04:40.478Z,16.40
2018-05-23T06:07:07.092Z,16.63
2018-05-23T06:09:33.693Z,15.97
2018-05-23T06:12:00.349Z,21.13
2018-05-23T06:14:27.052Z,18.90
2018-05-23T06:16:53.651Z,19.47
2018-05-23T06:19:20.305Z,23.53
2018-05-23T06:21:46.898Z,22.87
2018-05-23T06:24:13.471Z,27.23
2018-05-23T06:26:40.082Z,26.60
2018-05-23T06:29:06.694Z,23.50
2018-05-23T06:31:33.326Z,33.00
2018-05-23T06:33:59.931Z,36.10
2018-05-23T06:36:26.567Z,34.57
2018-05-23T06:38:53.215Z,42.80
2018-05-23T06:41:19.848Z,37.53
2018-05-23T06:43:46.469Z,36.27
2018-05-23T06:46:13.077Z,27.50
2018-05-23T06:48:39.665Z,24.00
2018-05-23T06:51:06.328Z,27.93
2018-05-23T06:53:32.962Z,26.33
2018-05-23T06:55:59.550Z,23.83
2018-05-23T06:58:27.013Z,25.30
2018-05-23T07:00:53.732Z,24.23
2018-05-23T07:03:20.310Z,21.27
2018-05-23T07:05:46.970Z,22.70
2018-05-23T07:08:13.465Z,22.03
2018-05-23T07:10:40.037Z,25.37
2018-05-23T07:13:06.622Z,22.10
2018-05-23T07:15:33.209Z,23.33
2018-05-23T07:17:59.887Z,21.70
2018-05-23T07:20:26.373Z,25.37
2018-05-23T07:22:52.949Z,22.93
2018-05-23T07:25:19.533Z,24.17
2018-05-23T07:27:46.121Z,25.00
2018-05-23T07:30:12.697Z,26.50
2018-05-23T07:32:39.292Z,27.97
2018-05-23T07:35:05.866Z,28.73
2018-05-23T07:37:32.437Z,31.43
2018-05-23T07:39:59.019Z,33.10
2018-05-23T07:42:25.606Z,29.70
2018-05-23T07:44:52.192Z,26.40
2018-05-23T07:47:18.766Z,32.03
2018-05-23T07:49:45.344Z,32.67
2018-05-23T07:52:11.916Z,22.30
2018-05-23T07:54:38.489Z,25.53
2018-05-23T07:57:05.090Z,27.10
2018-05-23T07:59:31.660Z,22.87
2018-05-23T08:01:58.243Z,18.73
2018-05-23T08:04:24.821Z,16.37
2018-05-23T08:06:51.399Z,18.23
2018-05-23T08:09:18.003Z,14.80
2018-05-23T08:11:44.621Z,17.00
2018-05-23T08:14:11.231Z,16.33
2018-05-23T08:16:37.846Z,20.57
2018-05-23T08:19:04.430Z,14.87
2018-05-23T08:21:31.069Z,15.40
2018-05-23T08:23:57.654Z,14.47
2018-05-23T08:26:24.255Z,13.17
2018-05-23T08:28:50.865Z,13.80
2018-05-23T08:31:17.514Z,13.03
2018-05-23T08:33:44.412Z,11.50
2018-05-23T08:36:10.999Z,12.37
2018-05-23T08:38:37.622Z,9.23
2018-05-23T08:41:04.282Z,10.80
2018-05-23T08:43:30.875Z,13.13
2018-05-23T08:45:57.581Z,10.93
2018-05-23T08:48:24.079Z,10.07
2018-05-23T08:50:50.665Z,9.17
2018-05-23T08:53:17.238Z,12.63
2018-05-23T08:55:43.849Z,10.27
2018-05-23T08:58:10.433Z,8.33
2018-05-23T09:00:36.998Z,8.80
2018-05-23T09:03:03.573Z,8.63
2018-05-23T09:05:30.147Z,8.60
2018-05-23T09:07:56.722Z,12.00
2018-05-23T09:10:23.299Z,8.27
2018-05-23T09:12:49.873Z,8.73
2018-05-23T09:15:16.472Z,7.77
2018-05-23T09:17:43.014Z,8.37
2018-05-23T09:20:09.589Z,6.90
2018-05-23T09:22:36.161Z,7.17
2018-05-23T09:25:02.728Z,7.07
2018-05-23T09:27:29.306Z,9.27
2018-05-23T09:29:55.869Z,9.53
2018-05-23T09:32:22.446Z,6.97
2018-05-23T09:34:49.017Z,8.20
2018-05-23T09:37:15.589Z,7.27
2018-05-23T09:39:42.170Z,8.03
2018-05-23T09:42:08.762Z,7.57
2018-05-23T09:44:35.308Z,7.27
2018-05-23T09:47:01.897Z,7.93
2018-05-23T09:49:28.468Z,9.43
2018-05-23T09:51:55.048Z,7.90
2018-05-23T09:54:21.620Z,6.60
2018-05-23T09:56:48.228Z,6.30
2018-05-23T09:59:14.796Z,8.13
2018-05-23T10:01:41.381Z,8.93
2018-05-23T10:04:07.953Z,6.63
2018-05-23T10:06:34.525Z,7.60
2018-05-23T10:09:01.202Z,8.73
2018-05-23T10:11:27.777Z,12.80
2018-05-23T10:13:54.345Z,8.13
2018-05-23T10:16:20.921Z,6.77
2018-05-23T10:18:47.493Z,7.07
2018-05-23T10:21:14.071Z,6.43
2018-05-23T10:23:40.669Z,15.60
2018-05-23T10:26:07.250Z,6.43
2018-05-23T10:28:33.817Z,7.37
2018-05-23T10:31:00.399Z,7.43
2018-05-23T10:33:26.977Z,6.50
2018-05-23T10:35:53.558Z,8.50
2018-05-23T10:38:20.125Z,9.07
2018-05-23T10:40:46.710Z,7.20
2018-05-23T10:43:13.281Z,8.57
2018-05-23T10:45:39.852Z,7.90
2018-05-23T10:48:06.422Z,8.77
2018-05-23T10:50:32.983Z,8.00
2018-05-23T10:52:59.565Z,8.23
2018-05-23T10:55:26.137Z,8.37
2018-05-23T10:57:52.708Z,17.07
2018-05-23T11:00:19.281Z,8.13
2018-05-23T11:02:45.853Z,11.27
2018-05-23T11:05:12.434Z,10.50
2018-05-23T11:07:39.006Z,9.00
2018-05-23T11:10:05.910Z,9.50
2018-05-23T11:12:32.478Z,10.63
2018-05-23T11:14:59.056Z,11.93
2018-05-23T11:17:25.625Z,9.97
2018-05-23T11:19:52.206Z,11.97
2018-05-23T11:22:18.833Z,9.77
2018-05-23T11:24:45.388Z,9.40
2018-05-23T11:27:11.973Z,9.57
2018-05-23T11:29:38.556Z,10.57
2018-05-23T11:32:05.113Z,11.80
2018-05-23T11:34:31.698Z,14.80
2018-05-23T11:36:58.273Z,11.87
2018-05-23T11:39:24.902Z,11.03
2018-05-23T11:41:51.469Z,12.07
2018-05-23T11:44:18.054Z,11.73
2018-05-23T11:46:44.654Z,13.50
2018-05-23T11:49:11.204Z,13.20
2018-05-23T11:51:37.793Z,14.23
2018-05-23T11:54:04.370Z,12.83
2018-05-23T11:56:30.958Z,12.37
2018-05-23T11:58:57.553Z,13.67
2018-05-23T12:01:24.130Z,12.60
2018-05-23T12:03:50.706Z,13.53
2018-05-23T12:06:17.283Z,12.17
2018-05-23T12:08:43.885Z,11.30
2018-05-23T12:11:10.458Z,11.90
2018-05-23T12:13:37.064Z,10.27
2018-05-23T12:16:03.650Z,10.33
2018-05-23T12:18:30.233Z,14.47
2018-05-23T12:20:56.808Z,12.00
2018-05-23T12:23:23.389Z,11.90
2018-05-23T12:25:49.979Z,11.17
2018-05-23T12:28:16.551Z,12.37
2018-05-23T12:30:43.137Z,12.23
2018-05-23T12:33:09.714Z,13.40
2018-05-23T12:35:36.299Z,13.50
2018-05-23T12:38:02.881Z,16.53
2018-05-23T12:40:29.473Z,14.40
2018-05-23T12:42:56.066Z,17.50
2018-05-23T12:45:22.648Z,13.97
2018-05-23T12:47:49.246Z,13.90
2018-05-23T12:50:15.845Z,12.57
2018-05-23T12:52:42.433Z,12.20
2018-05-23T12:55:09.003Z,11.07
2018-05-23T12:57:35.581Z,12.47
2018-05-23T13:00:02.166Z,14.03
2018-05-23T13:02:28.741Z,12.33
2018-05-23T13:04:55.329Z,13.17
2018-05-23T13:07:21.934Z,12.57
2018-05-23T13:09:48.523Z,13.10
2018-05-23T13:12:15.092Z,19.20
2018-05-23T13:14:41.674Z,13.90
2018-05-23T13:17:08.257Z,12.20
2018-05-23T13:19:34.826Z,12.40
2018-05-23T13:22:01.434Z,13.17
2018-05-23T13:24:28.008Z,15.20
2018-05-23T13:26:54.585Z,13.33
2018-05-23T13:29:21.165Z,13.23
2018-05-23T13:31:47.740Z,17.03
2018-05-23T13:34:14.324Z,12.20
2018-05-23T13:36:40.902Z,13.20
2018-05-23T13:39:07.550Z,14.07
2018-05-23T13:41:34.108Z,13.80
2018-05-23T13:44:00.705Z,15.13
2018-05-23T13:46:27.285Z,11.63
2018-05-23T13:48:53.868Z,12.40
2018-05-23T13:51:20.441Z,13.10
2018-05-23T13:53:47.021Z,12.50
2018-05-23T13:56:13.606Z,11.90
2018-05-23T13:58:40.181Z,12.97
2018-05-23T14:01:06.797Z,11.67
2018-05-23T14:03:33.376Z,12.63
2018-05-23T14:05:59.949Z,13.97
2018-05-23T14:08:26.533Z,11.30
2018-05-23T14:10:53.117Z,11.90
2018-05-23T14:13:19.700Z,12.37
2018-05-23T14:15:46.286Z,11.17
2018-05-23T14:18:12.901Z,11.60
2018-05-23T14:20:39.484Z,11.33
2018-05-23T14:23:07.285Z,13.33
2018-05-23T14:25:33.845Z,10.70
2018-05-23T14:28:00.425Z,12.10
2018-05-23T14:30:27.013Z,12.40
2018-05-23T14:32:53.590Z,12.70
2018-05-23T14:35:20.173Z,12.20
2018-05-23T14:37:46.797Z,10.70
2018-05-23T14:40:13.385Z,14.73
2018-05-23T14:42:39.974Z,12.33
2018-05-23T14:45:06.552Z,12.13
2018-05-23T14:47:33.133Z,13.90
2018-05-23T14:49:59.740Z,13.20
2018-05-23T14:52:26.375Z,14.40
2018-05-23T14:54:52.938Z,13.10
2018-05-23T14:57:19.510Z,9.90
2018-05-23T14:59:46.105Z,15.03
2018-05-23T15:02:12.677Z,10.00
2018-05-23T15:04:39.253Z,10.53
2018-05-23T15:07:05.841Z,10.57
2018-05-23T15:09:32.403Z,10.90
2018-05-23T15:11:58.985Z,9.53
2018-05-23T15:14:25.616Z,11.57
2018-05-23T15:16:52.128Z,12.17
2018-05-23T15:19:18.706Z,10.37
2018-05-23T15:21:45.273Z,13.27
2018-05-23T15:24:11.857Z,9.50
2018-05-23T15:26:38.432Z,8.80
2018-05-23T15:29:05.106Z,10.73
2018-05-23T15:31:31.730Z,13.23
2018-05-23T15:33:58.225Z,9.53
2018-05-23T15:36:25.147Z,12.20
2018-05-23T15:38:51.743Z,12.37
2018-05-23T15:41:18.329Z,10.40
2018-05-23T15:43:44.901Z,10.30
2018-05-23T15:46:11.488Z,11.23
2018-05-23T15:48:38.063Z,9.10
2018-05-23T15:51:04.642Z,9.37
2018-05-23T15:53:31.217Z,11.43
2018-05-23T15:55:57.804Z,12.10
2018-05-23T15:58:24.394Z,14.17
2018-05-23T16:00:50.969Z,9.00
2018-05-23T16:03:17.561Z,9.63
2018-05-23T16:05:44.141Z,9.90
2018-05-23T16:08:11.052Z,9.50
2018-05-23T16:10:37.621Z,11.83
2018-05-23T16:13:04.194Z,14.80
2018-05-23T16:15:30.771Z,8.30
2018-05-23T16:17:57.342Z,14.97
2018-05-23T16:20:23.923Z,7.93
2018-05-23T16:22:50.503Z,8.13
2018-05-23T16:25:17.102Z,7.83
2018-05-23T16:27:43.694Z,10.07
2018-05-23T16:30:10.277Z,11.53
2018-05-23T16:32:36.870Z,8.40
2018-05-23T16:35:03.457Z,13.17
2018-05-23T16:37:30.029Z,7.57
2018-05-23T16:39:56.596Z,11.47
2018-05-23T16:42:23.183Z,7.87
2018-05-23T16:44:49.750Z,9.50
2018-05-23T16:47:16.333Z,9.83
2018-05-23T16:49:42.905Z,13.17
2018-05-23T16:52:09.554Z,8.53
2018-05-23T16:54:36.059Z,9.00
2018-05-23T16:57:02.636Z,7.87
2018-05-23T16:59:29.222Z,7.10
2018-05-23T17:01:55.793Z,11.20
2018-05-23T17:04:22.361Z,11.53
2018-05-23T17:06:48.946Z,12.97
2018-05-23T17:09:15.509Z,11.57
2018-05-23T17:11:42.081Z,8.37
2018-05-23T17:14:08.652Z,16.03
2018-05-23T17:16:35.225Z,10.50
2018-05-23T17:19:01.802Z,12.50
2018-05-23T17:21:28.389Z,8.43
2018-05-23T17:23:54.961Z,6.93
2018-05-23T17:26:21.529Z,8.30
2018-05-23T17:28:48.121Z,8.73
2018-05-23T17:31:14.725Z,8.73
2018-05-23T17:33:41.307Z,9.53
2018-05-23T17:36:07.875Z,8.40
2018-05-23T17:38:34.475Z,8.37
2018-05-23T17:41:01.048Z,8.70
2018-05-23T17:43:27.671Z,7.77
2018-05-23T17:45:54.245Z,8.70
2018-05-23T17:48:20.835Z,8.57
2018-05-23T17:50:47.405Z,8.67
2018-05-23T17:53:13.969Z,8.33
2018-05-23T17:55:40.580Z,15.80
2018-05-23T17:58:07.180Z,11.00
2018-05-23T18:00:33.774Z,12.40
2018-05-23T18:03:00.365Z,11.13
2018-05-23T18:05:26.940Z,8.13
2018-05-23T18:07:53.553Z,9.73
2018-05-23T18:10:20.163Z,8.33
2018-05-23T18:12:46.748Z,12.43
2018-05-23T18:15:14.340Z,8.47
2018-05-23T18:17:40.982Z,7.73
2018-05-23T18:20:07.486Z,9.30
2018-05-23T18:22:34.081Z,8.17
2018-05-23T18:25:00.694Z,9.83
2018-05-23T18:27:27.273Z,8.63
2018-05-23T18:29:53.885Z,8.03
2018-05-23T18:32:20.492Z,8.40
2018-05-23T18:34:47.134Z,10.50
2018-05-23T18:37:13.767Z,8.00
2018-05-23T18:39:43.537Z,8.10
2018-05-23T18:42:10.110Z,8.47
2018-05-23T18:44:36.677Z,7.50
2018-05-23T18:47:04.575Z,9.77
2018-05-23T18:49:31.289Z,7.00
2018-05-23T18:52:00.086Z,7.60
2018-05-23T18:54:26.689Z,7.77
2018-05-23T18:56:53.219Z,9.43
2018-05-23T18:59:19.805Z,9.70
2018-05-23T19:01:46.421Z,10.20
2018-05-23T19:04:12.999Z,10.90
2018-05-23T19:06:39.573Z,10.67
2018-05-23T19:09:06.137Z,7.40
2018-05-23T19:11:33.593Z,9.27
2018-05-23T19:14:00.159Z,7.83
2018-05-23T19:16:26.756Z,10.87
2018-05-23T19:18:53.334Z,7.27
2018-05-23T19:21:19.965Z,6.90
2018-05-23T19:23:46.542Z,6.57
2018-05-23T19:26:13.109Z,8.93
2018-05-23T19:28:39.687Z,6.17
2018-05-23T19:31:06.261Z,7.07
2018-05-23T19:33:32.832Z,7.50
2018-05-23T19:35:59.442Z,6.43
2018-05-23T19:38:26.026Z,8.47
2018-05-23T19:40:52.681Z,7.33
2018-05-23T19:43:19.304Z,8.03
2018-05-23T19:45:45.905Z,9.90
2018-05-23T19:48:12.506Z,8.30
2018-05-23T19:50:39.141Z,7.27
2018-05-23T19:53:05.689Z,7.57
2018-05-23T19:55:32.265Z,6.80
2018-05-23T19:57:58.832Z,7.73
2018-05-23T20:00:25.422Z,7.87
2018-05-23T20:02:52.062Z,7.30
2018-05-23T20:05:18.621Z,8.27
2018-05-23T20:07:45.201Z,8.47
2018-05-23T20:10:11.783Z,10.03
2018-05-23T20:12:38.360Z,9.77
2018-05-23T20:15:04.937Z,10.40
2018-05-23T20:17:31.512Z,9.10
2018-05-23T20:19:58.090Z,11.63
2018-05-23T20:22:24.674Z,9.10
2018-05-23T20:24:51.250Z,8.77
2018-05-23T20:27:17.813Z,10.97
2018-05-23T20:29:44.398Z,9.33
2018-05-23T20:32:10.966Z,8.93
2018-05-23T20:34:37.547Z,8.83
2018-05-23T20:37:04.117Z,10.13
2018-05-23T20:39:30.697Z,9.60
2018-05-23T20:41:57.306Z,8.20
2018-05-23T20:44:23.877Z,10.53
2018-05-23T20:46:50.469Z,8.73
2018-05-23T20:49:17.059Z,11.80
2018-05-23T20:51:43.677Z,8.73
2018-05-23T20:54:10.227Z,8.37
2018-05-23T20:56:36.819Z,8.63
2018-05-23T20:59:03.397Z,12.47
2018-05-23T21:01:29.986Z,12.10
2018-05-23T21:03:56.565Z,11.70
2018-05-23T21:06:23.169Z,10.20
2018-05-23T21:08:49.733Z,10.43
2018-05-23T21:11:16.320Z,8.10
2018-05-23T21:13:42.889Z,7.80
2018-05-23T21:16:09.461Z,8.00
2018-05-23T21:18:36.043Z,9.17
2018-05-23T21:21:02.613Z,8.00
2018-05-23T21:23:29.185Z,11.37
2018-05-23T21:25:55.758Z,8.30
2018-05-23T21:28:22.333Z,12.10
2018-05-23T21:30:48.912Z,12.63
2018-05-23T21:33:15.492Z,10.27
2018-05-23T21:35:42.057Z,9.97
2018-05-23T21:38:08.634Z,9.60
2018-05-23T21:40:35.223Z,7.33
2018-05-23T21:43:01.893Z,7.50
2018-05-23T21:45:28.477Z,8.17
2018-05-23T21:47:55.047Z,10.60
2018-05-23T21:50:21.986Z,8.90
2018-05-23T21:52:49.184Z,7.43
2018-05-23T21:55:16.275Z,9.17
2018-05-23T21:57:42.850Z,11.27
2018-05-23T22:00:09.426Z,12.90
2018-05-23T22:02:35.996Z,7.43
2018-05-23T22:05:02.594Z,7.37
2018-05-23T22:07:29.209Z,7.50
2018-05-23T22:09:55.788Z,6.97
2018-05-23T22:12:22.368Z,10.77
2018-05-23T22:14:48.976Z,8.47
2018-05-23T22:17:15.521Z,7.20
2018-05-23T22:19:42.097Z,9.20
2018-05-23T22:22:08.666Z,7.03
2018-05-23T22:24:35.291Z,10.23
2018-05-23T22:27:01.800Z,7.43
2018-05-23T22:29:28.394Z,10.40
2018-05-23T22:31:54.980Z,7.53
2018-05-23T22:34:21.544Z,7.83
2018-05-23T22:36:48.122Z,7.63
2018-05-23T22:39:14.688Z,10.67
2018-05-23T22:41:41.325Z,8.23
2018-05-23T22:44:07.832Z,7.90
2018-05-23T22:46:34.405Z,8.40
2018-05-23T22:49:00.989Z,7.47
2018-05-23T22:51:27.582Z,9.57
2018-05-23T22:53:54.162Z,7.00
2018-05-23T22:56:20.740Z,8.23
2018-05-23T22:58:47.313Z,8.00
2018-05-23T23:01:13.876Z,8.23
2018-05-23T23:03:40.465Z,11.57
2018-05-23T23:06:07.116Z,6.93
2018-05-23T23:08:33.657Z,7.70
2018-05-23T23:11:00.233Z,7.13
2018-05-23T23:13:26.797Z,7.60
2018-05-23T23:15:53.377Z,9.20
2018-05-23T23:18:19.978Z,6.80
2018-05-23T23:20:46.549Z,6.83
2018-05-23T23:23:13.171Z,10.93
2018-05-23T23:25:39.729Z,6.57
2018-05-23T23:28:12.836Z,11.60
2018-05-23T23:30:39.404Z,6.30
2018-05-23T23:33:05.969Z,10.37
2018-05-23T23:35:32.540Z,9.03
2018-05-23T23:37:59.117Z,6.23
2018-05-23T23:40:25.701Z,12.03
2018-05-23T23:42:52.473Z,9.80
2018-05-23T23:45:19.052Z,6.00
2018-05-23T23:47:45.626Z,9.20
2018-05-23T23:50:12.231Z,6.73
2018-05-23T23:52:38.794Z,5.83
2018-05-23T23:55:05.360Z,6.60
2018-05-23T23:57:31.953Z,10.33
2018-05-23T23:59:58.518Z,5.97
